Language selection

Features

My Weather Profile Weather Topics  | 

Douglas Channel: Past 24 Hour Conditions

 

Sandspit Airport

04:00 PM PST 22 November 2019
Disclaimer

This table is a summary of hourly weather conditions for the past 24 hours.
Please note that these observations might not always be representative of weather conditions over their associated marine area.

Date / Time
(PST)
Wind(knots) Conditions Visibility(km) Pressure(kPa) Air tempC) Relative humidity(%) Dew pointC)
22 November 2019
16:00 WSW 24 gust 30 Light Rain 16 100.9 12 88 10
15:00 SW 14 gust 20 Light Rain 16 100.9 12 87 10
14:00 WSW 18 gust 24 Light Rain 16 100.8 13 86 10
13:00 SSW 6 Light Rain 11 100.8 12 88 11
12:00 SW 8 gust 22 Light Rain 10 100.8 13 87 10
11:00 SW 12 gust 18 Light Rain 16 100.8 13 83 10
10:00 S 12 gust 17 Cloudy 16 100.8 13 81 10
9:00 S 5 Light Rain 16 100.8 11 93 10
8:00 SSE 14 Light Rain 16 100.8 11 94 10
7:00 SSE 7 Light Rain 16 100.9 11 94 10
6:00 SSE 8 Light Rain 10 101.0 11 95 10
5:00 SSE 11 Light Rain 13 101.0 10 96 10
4:00 S 7 Light Rain 16 101.0 11 94 10
3:00 S 10 Light Rain 16 101.0 10 94 9
2:00 SSE 11 Light Rain 16 101.0 9 94 8
1:00 SSE 13 Light Rain 16 101.0 9 86 7
0:00 SSE 9 Light Rain 16 101.1 9 83 6
21 November 2019
23:00 S 7 Cloudy 16 101.1 9 77 5
22:00 SSE 9 Cloudy 16 101.1 8 81 5
21:00 S 5 Mostly Cloudy 16 101.1 9 74 4
20:00 SW 7 Partly Cloudy 16 101.0 9 74 5
19:00 WSW 21 gust 32 Cloudy 16 100.8 9 73 5
18:00 WSW 18 gust 27 Mostly Cloudy 16 100.6 10 79 6
17:00 W 24 Mainly Clear 16 100.4 11 84 8
16:00 W 14 Mostly Cloudy 16 100.3 10 93 9

Zoom-in to make a selection

Map of Pacific - North Coast marine weather areas Middle Nomad - 46004 South Nomad - 46036 Dixon Entrance Central - 46145 South Moresby - 46147 Nanakwa Shoal - 46181 North Hecate Strait - 46183 North Nomad - 46184 South Hecate Strait - 46185 West Sea Otter - 46204 West Dixon Entrance - 46205 East Dellwood - 46207 West Moresby - 46208 Sartine Island Cape St.James Kindakun Rocks Langara Island Masset Municipal Airport Rose Spit Sandspit Airport Bella Bella Airport Bella Coola Airport Bonilla Island Cathedral Point Cumshewa Island Grey Islet Holland Rock Lucy Islands Lightstation Prince Rupert Airport
Legend:
buoy Buoy
land station Land Station

Pacific - North Coast Area

Another Region

What we are doing

Date modified: